Time;durP1;ratioP1;P1;durP2;ratioP2;P2;SDS_P1;SDS_P2;PMS_P1;PMS_P2;Temp;Humidity;BMP_temperature;BMP_pressure;BME280_temperature;BME280_humidity;BME280_pressure;Samples;Min_cycle;Max_cycle;Signal;HPM_P1;HPM_P2
2023/05/29 00:00:11;;;;;;;8.65;3.45;;;;;;;;;;5092679;28;20040;-74
2023/05/29 00:02:37;;;;;;;6.38;3.63;;;;;;;;;;5075290;28;20047;-73
2023/05/29 00:05:05;;;;;;;7.33;3.13;;;;;;;;;;5097107;28;20077;-74
2023/05/29 00:07:30;;;;;;;6.28;3.28;;;;;;;;;;5079057;28;20265;-74
2023/05/29 00:09:56;;;;;;;7.47;3.13;;;;;;;;;;5096825;28;20024;-72
2023/05/29 00:12:22;;;;;;;7.55;3.60;;;;;;;;;;5096592;28;20024;-74
2023/05/29 00:14:48;;;;;;;8.23;3.17;;;;;;;;;;5096565;28;20012;-73
2023/05/29 00:17:15;;;;;;;9.32;3.63;;;;;;;;;;5096980;28;20047;-74
2023/05/29 00:19:40;;;;;;;9.07;3.63;;;;;;;;;;5096788;28;20042;-74
2023/05/29 00:22:06;;;;;;;8.10;4.07;;;;;;;;;;5096885;28;20512;-74
2023/05/29 00:24:31;;;;;;;7.82;3.45;;;;;;;;;;5078370;28;20261;-74
2023/05/29 00:26:56;;;;;;;6.30;3.50;;;;;;;;;;5096445;28;20204;-73
2023/05/29 00:29:22;;;;;;;8.07;3.97;;;;;;;;;;5096400;28;20020;-73
2023/05/29 00:31:47;;;;;;;7.97;3.88;;;;;;;;;;5096778;28;20019;-73
2023/05/29 00:34:12;;;;;;;5.32;3.20;;;;;;;;;;5096582;28;20020;-73
2023/05/29 00:36:38;;;;;;;9.80;3.30;;;;;;;;;;5096578;28;20024;-74
2023/05/29 00:39:03;;;;;;;6.03;3.20;;;;;;;;;;5096224;28;20290;-73
2023/05/29 00:41:28;;;;;;;7.25;3.65;;;;;;;;;;5096215;28;20464;-73
2023/05/29 00:43:54;;;;;;;9.00;3.55;;;;;;;;;;5095702;28;20050;-73
2023/05/29 00:46:20;;;;;;;9.45;3.58;;;;;;;;;;5096137;28;20433;-75
2023/05/29 00:48:45;;;;;;;6.32;3.65;;;;;;;;;;5096420;28;20037;-74
2023/05/29 00:51:11;;;;;;;7.47;3.80;;;;;;;;;;5096238;28;20016;-74
2023/05/29 00:53:37;;;;;;;7.32;4.20;;;;;;;;;;5095864;28;20106;-74
2023/05/29 00:56:02;;;;;;;11.25;4.07;;;;;;;;;;5095887;28;20024;-74
2023/05/29 00:58:28;;;;;;;11.20;3.55;;;;;;;;;;5095753;28;20499;-73
2023/05/29 01:00:53;;;;;;;5.97;3.20;;;;;;;;;;5077489;28;20031;-72
2023/05/29 01:03:20;;;;;;;7.15;3.58;;;;;;;;;;5095555;28;20047;-73
2023/05/29 01:05:46;;;;;;;7.75;3.50;;;;;;;;;;5105978;27;20016;-73
2023/05/29 01:08:12;;;;;;;7.13;3.50;;;;;;;;;;5114557;28;20042;-73
2023/05/29 01:10:37;;;;;;;7.35;3.53;;;;;;;;;;5113552;28;20047;-73
2023/05/29 01:13:11;;;;;;;12.48;3.83;;;;;;;;;;5113496;28;20012;-73
2023/05/29 01:15:49;;;;;;;8.07;3.10;;;;;;;;;;5094258;28;20453;-73
2023/05/29 01:18:23;;;;;;;7.03;3.38;;;;;;;;;;5113884;28;20092;-74
2023/05/29 01:20:52;;;;;;;6.22;3.55;;;;;;;;;;5113733;28;20130;-74
2023/05/29 01:23:35;;;;;;;12.02;4.00;;;;;;;;;;5113352;28;20084;-73
2023/05/29 01:26:01;;;;;;;6.00;3.72;;;;;;;;;;5113432;28;20524;-74
2023/05/29 01:28:31;;;;;;;4.05;2.95;;;;;;;;;;5113712;28;20016;-74
2023/05/29 01:30:57;;;;;;;6.68;3.40;;;;;;;;;;5113561;28;20047;-73
2023/05/29 01:33:22;;;;;;;6.22;3.15;;;;;;;;;;5113679;28;20076;-73
2023/05/29 01:35:47;;;;;;;10.32;4.28;;;;;;;;;;5113371;28;20015;-74
2023/05/29 01:38:12;;;;;;;7.68;3.88;;;;;;;;;;5113335;28;20015;-72
2023/05/29 01:40:38;;;;;;;5.85;3.65;;;;;;;;;;5114017;28;20068;-73
2023/05/29 01:43:03;;;;;;;8.77;3.60;;;;;;;;;;5115156;28;20368;-73
2023/05/29 01:45:29;;;;;;;8.18;4.00;;;;;;;;;;5115191;28;20026;-75
2023/05/29 01:47:55;;;;;;;8.35;3.63;;;;;;;;;;5114796;28;20069;-74
2023/05/29 01:50:22;;;;;;;11.32;3.80;;;;;;;;;;5115130;28;20015;-74
2023/05/29 01:52:47;;;;;;;10.18;4.63;;;;;;;;;;5114937;28;20517;-73
2023/05/29 01:55:12;;;;;;;7.72;3.63;;;;;;;;;;5095864;28;20024;-73
2023/05/29 01:57:37;;;;;;;7.07;3.90;;;;;;;;;;5113816;28;20046;-74
2023/05/29 02:00:08;;;;;;;7.80;4.00;;;;;;;;;;5114820;28;20044;-74
2023/05/29 02:02:42;;;;;;;10.40;4.97;;;;;;;;;;5115233;28;20106;-75
2023/05/29 02:05:08;;;;;;;5.93;3.80;;;;;;;;;;5114871;28;20015;-74
2023/05/29 02:07:34;;;;;;;9.10;3.53;;;;;;;;;;5115198;28;20015;-73
2023/05/29 02:09:59;;;;;;;12.32;3.92;;;;;;;;;;5096630;28;20026;-72
2023/05/29 02:12:24;;;;;;;8.10;3.60;;;;;;;;;;5114884;28;20019;-73
2023/05/29 02:14:50;;;;;;;8.57;4.20;;;;;;;;;;5114704;28;20013;-72
2023/05/29 02:17:15;;;;;;;8.77;4.40;;;;;;;;;;5096454;28;20073;-73
2023/05/29 02:19:40;;;;;;;9.18;4.05;;;;;;;;;;5114562;28;20103;-72
2023/05/29 02:22:06;;;;;;;7.72;4.45;;;;;;;;;;5114564;28;20346;-72
2023/05/29 02:24:32;;;;;;;8.93;3.92;;;;;;;;;;5114912;28;20047;-72
2023/05/29 02:26:57;;;;;;;12.57;5.15;;;;;;;;;;5114374;28;20093;-72
2023/05/29 02:29:22;;;;;;;9.10;5.00;;;;;;;;;;5114602;28;20046;-72
2023/05/29 02:31:47;;;;;;;10.60;4.53;;;;;;;;;;5096057;28;20058;-73
2023/05/29 02:34:13;;;;;;;8.90;4.55;;;;;;;;;;5114923;28;20020;-72
2023/05/29 02:36:38;;;;;;;11.20;4.45;;;;;;;;;;5114187;28;20053;-72
2023/05/29 02:39:04;;;;;;;10.43;5.07;;;;;;;;;;5115107;28;20057;-71
2023/05/29 02:41:29;;;;;;;14.90;4.45;;;;;;;;;;5114211;28;20429;-71
2023/05/29 02:43:54;;;;;;;10.00;4.78;;;;;;;;;;5114272;28;20080;-71
2023/05/29 02:46:21;;;;;;;12.55;4.45;;;;;;;;;;5114247;28;20447;-72
2023/05/29 02:48:46;;;;;;;10.40;4.70;;;;;;;;;;5114094;28;20023;-73
2023/05/29 02:51:12;;;;;;;8.73;4.93;;;;;;;;;;5095764;28;20023;-73
2023/05/29 02:53:37;;;;;;;8.88;4.32;;;;;;;;;;5114520;28;20039;-73
2023/05/29 02:56:03;;;;;;;7.60;5.00;;;;;;;;;;5114211;28;20019;-71
2023/05/29 02:58:28;;;;;;;12.70;5.25;;;;;;;;;;5113804;28;20019;-71
2023/05/29 03:00:54;;;;;;;10.50;5.13;;;;;;;;;;5114112;28;20372;-72
2023/05/29 03:03:19;;;;;;;11.00;4.90;;;;;;;;;;5113650;28;20460;-72
2023/05/29 03:05:47;;;;;;;7.70;4.95;;;;;;;;;;5113978;28;20102;-73
2023/05/29 03:08:12;;;;;;;10.45;4.90;;;;;;;;;;5095765;28;20461;-72
2023/05/29 03:10:38;;;;;;;11.30;5.00;;;;;;;;;;5113760;28;20069;-73
2023/05/29 03:13:03;;;;;;;12.60;5.00;;;;;;;;;;5113744;28;20030;-72
2023/05/29 03:15:28;;;;;;;7.95;4.82;;;;;;;;;;5113758;28;20388;-71
2023/05/29 03:17:54;;;;;;;9.60;5.10;;;;;;;;;;5113758;28;20472;-73
2023/05/29 03:20:19;;;;;;;15.32;5.18;;;;;;;;;;5113878;28;20465;-72
2023/05/29 03:22:44;;;;;;;13.27;5.75;;;;;;;;;;5114250;28;20032;-72
2023/05/29 03:25:09;;;;;;;7.10;4.70;;;;;;;;;;5113919;28;20023;-70
2023/05/29 03:27:35;;;;;;;9.48;4.50;;;;;;;;;;5113821;28;20125;-72
2023/05/29 03:30:00;;;;;;;11.00;4.75;;;;;;;;;;5113445;28;20031;-72
2023/05/29 03:32:25;;;;;;;8.27;5.05;;;;;;;;;;5113681;28;20046;-72
2023/05/29 03:34:51;;;;;;;9.55;4.60;;;;;;;;;;5113498;28;20035;-71
2023/05/29 03:37:16;;;;;;;10.82;5.35;;;;;;;;;;5112794;28;20092;-71
2023/05/29 03:39:41;;;;;;;10.25;4.82;;;;;;;;;;5113747;28;20418;-72
2023/05/29 03:42:07;;;;;;;7.45;5.03;;;;;;;;;;5113516;28;20024;-71
2023/05/29 03:44:32;;;;;;;10.60;5.13;;;;;;;;;;5113461;28;20020;-72
2023/05/29 03:46:57;;;;;;;8.65;5.13;;;;;;;;;;5113402;28;20045;-72
2023/05/29 03:49:23;;;;;;;8.65;5.47;;;;;;;;;;5112972;28;20426;-71
2023/05/29 03:51:49;;;;;;;8.17;5.07;;;;;;;;;;5113493;28;20020;-71
2023/05/29 03:54:14;;;;;;;8.98;5.40;;;;;;;;;;5113094;28;20301;-72
2023/05/29 03:56:39;;;;;;;9.38;5.32;;;;;;;;;;5095051;28;20456;-72
2023/05/29 03:59:05;;;;;;;12.45;5.18;;;;;;;;;;5112922;28;20044;-72
2023/05/29 04:01:31;;;;;;;13.05;5.15;;;;;;;;;;5113075;28;20035;-71
2023/05/29 04:03:56;;;;;;;15.60;5.53;;;;;;;;;;5094967;28;20106;-73
2023/05/29 04:06:23;;;;;;;15.18;5.35;;;;;;;;;;5113163;28;20047;-73
2023/05/29 04:08:49;;;;;;;10.25;5.68;;;;;;;;;;5094888;28;20444;-74
2023/05/29 04:11:16;;;;;;;13.88;5.35;;;;;;;;;;5113458;28;20095;-73
2023/05/29 04:13:43;;;;;;;11.80;4.78;;;;;;;;;;5113061;28;20059;-73
2023/05/29 04:16:08;;;;;;;13.02;5.40;;;;;;;;;;5108125;28;20019;-73
2023/05/29 04:18:34;;;;;;;11.07;5.93;;;;;;;;;;5092720;28;20110;-76
2023/05/29 04:21:01;;;;;;;13.30;5.93;;;;;;;;;;5112908;28;20027;-74
2023/05/29 04:23:27;;;;;;;20.45;6.15;;;;;;;;;;5112329;28;20016;-73
2023/05/29 04:25:53;;;;;;;12.95;5.90;;;;;;;;;;5075729;28;20036;-74
2023/05/29 04:28:21;;;;;;;11.57;5.53;;;;;;;;;;5074339;28;20042;-73
2023/05/29 04:30:56;;;;;;;16.77;5.72;;;;;;;;;;5096107;28;20012;-72
2023/05/29 04:33:23;;;;;;;11.40;4.95;;;;;;;;;;5107197;28;20391;-73
2023/05/29 04:35:50;;;;;;;11.70;6.03;;;;;;;;;;5112215;28;20034;-74
2023/05/29 04:38:24;;;;;;;15.38;5.85;;;;;;;;;;5094585;28;20480;-73
2023/05/29 04:40:57;;;;;;;12.38;5.60;;;;;;;;;;5113152;28;20020;-71
2023/05/29 04:43:26;;;;;;;18.25;6.47;;;;;;;;;;5094344;28;20015;-69
2023/05/29 04:45:53;;;;;;;12.23;5.70;;;;;;;;;;5112809;28;20055;-69
2023/05/29 04:48:19;;;;;;;10.68;5.35;;;;;;;;;;5094860;28;20537;-72
2023/05/29 04:50:46;;;;;;;18.88;6.60;;;;;;;;;;5116089;28;20040;-71
2023/05/29 04:53:12;;;;;;;12.10;6.05;;;;;;;;;;5116280;28;20032;-69
2023/05/29 04:55:38;;;;;;;15.27;6.63;;;;;;;;;;5116790;28;20047;-70
2023/05/29 04:58:04;;;;;;;15.07;6.30;;;;;;;;;;5115223;28;20032;-70
2023/05/29 05:00:30;;;;;;;12.25;5.70;;;;;;;;;;5115219;28;20059;-71
2023/05/29 05:02:56;;;;;;;11.70;5.35;;;;;;;;;;5115462;28;20040;-72
2023/05/29 05:05:22;;;;;;;13.48;5.78;;;;;;;;;;5116335;28;20016;-72
2023/05/29 05:07:48;;;;;;;23.42;6.55;;;;;;;;;;5097572;28;20081;-73
2023/05/29 05:10:14;;;;;;;22.08;6.60;;;;;;;;;;5116253;28;20016;-73
2023/05/29 05:12:40;;;;;;;11.47;5.37;;;;;;;;;;5116024;28;20035;-72
2023/05/29 05:15:07;;;;;;;17.88;6.45;;;;;;;;;;5097369;28;20273;-70
2023/05/29 05:17:33;;;;;;;12.98;6.18;;;;;;;;;;5116019;28;20085;-71
2023/05/29 05:20:05;;;;;;;18.13;6.05;;;;;;;;;;5115575;28;20482;-72
2023/05/29 05:22:31;;;;;;;12.68;6.05;;;;;;;;;;5115207;28;20114;-71
2023/05/29 05:24:56;;;;;;;16.08;5.75;;;;;;;;;;5115407;28;20085;-72
2023/05/29 05:27:23;;;;;;;15.98;6.55;;;;;;;;;;5114558;28;20518;-71
2023/05/29 05:29:49;;;;;;;17.33;6.45;;;;;;;;;;5115446;28;20036;-70
2023/05/29 05:32:14;;;;;;;18.95;6.43;;;;;;;;;;5097091;28;20520;-72
2023/05/29 05:34:39;;;;;;;14.70;6.57;;;;;;;;;;5115086;28;20019;-70
2023/05/29 05:37:06;;;;;;;14.50;5.85;;;;;;;;;;5115643;28;20098;-71
2023/05/29 05:39:32;;;;;;;11.73;5.72;;;;;;;;;;5115735;28;20038;-70
2023/05/29 05:41:57;;;;;;;12.45;5.97;;;;;;;;;;5113790;28;20019;-72
2023/05/29 05:44:22;;;;;;;17.50;6.93;;;;;;;;;;5095029;28;20362;-73
2023/05/29 05:46:48;;;;;;;15.60;6.15;;;;;;;;;;5113400;28;20269;-72
2023/05/29 05:49:13;;;;;;;14.60;5.50;;;;;;;;;;5113809;28;20024;-72
2023/05/29 05:51:38;;;;;;;19.37;6.40;;;;;;;;;;5113698;28;20744;-72
2023/05/29 05:54:03;;;;;;;12.20;6.10;;;;;;;;;;5113826;28;20269;-72
2023/05/29 05:56:29;;;;;;;17.02;6.20;;;;;;;;;;5113717;28;20285;-72
2023/05/29 05:58:55;;;;;;;10.93;4.80;;;;;;;;;;5115171;28;20047;-72
2023/05/29 06:01:20;;;;;;;12.00;4.88;;;;;;;;;;5114798;28;20030;-71
2023/05/29 06:03:45;;;;;;;11.07;4.53;;;;;;;;;;5113856;28;20670;-73
2023/05/29 06:06:11;;;;;;;10.57;4.85;;;;;;;;;;5094399;28;20019;-71
2023/05/29 06:08:37;;;;;;;11.48;4.38;;;;;;;;;;5112749;28;20119;-71
2023/05/29 06:11:02;;;;;;;15.82;4.13;;;;;;;;;;5094177;28;20460;-73
2023/05/29 06:13:28;;;;;;;17.63;4.60;;;;;;;;;;5094316;28;20028;-73
2023/05/29 06:15:53;;;;;;;12.37;4.67;;;;;;;;;;5112560;28;20276;-72
2023/05/29 06:18:19;;;;;;;8.23;3.88;;;;;;;;;;5112688;28;20271;-71
2023/05/29 06:20:44;;;;;;;13.97;3.83;;;;;;;;;;5130354;27;20143;-71
2023/05/29 06:23:10;;;;;;;12.23;3.95;;;;;;;;;;5114605;28;20284;-70
2023/05/29 06:25:35;;;;;;;9.00;3.53;;;;;;;;;;5114527;28;20372;-72
2023/05/29 06:28:01;;;;;;;14.07;3.83;;;;;;;;;;5114688;28;20142;-72
2023/05/29 06:30:26;;;;;;;6.15;2.88;;;;;;;;;;5114521;28;20032;-73
2023/05/29 06:32:51;;;;;;;11.30;3.85;;;;;;;;;;5114448;28;20038;-72
2023/05/29 06:35:17;;;;;;;6.50;3.30;;;;;;;;;;5114222;28;20019;-72
2023/05/29 06:37:42;;;;;;;7.43;3.33;;;;;;;;;;5114240;28;20035;-72
2023/05/29 06:40:07;;;;;;;10.10;3.50;;;;;;;;;;5114183;28;20023;-71
2023/05/29 06:42:33;;;;;;;5.55;3.08;;;;;;;;;;5114345;28;20434;-72
2023/05/29 06:44:58;;;;;;;9.93;3.73;;;;;;;;;;5114693;28;20111;-72
2023/05/29 06:47:23;;;;;;;14.07;3.90;;;;;;;;;;5114290;28;20019;-72
2023/05/29 06:49:49;;;;;;;7.67;3.50;;;;;;;;;;5114032;28;20019;-71
2023/05/29 06:52:14;;;;;;;6.83;3.63;;;;;;;;;;5096029;28;20552;-71
2023/05/29 06:54:40;;;;;;;7.60;2.80;;;;;;;;;;5113927;28;20424;-72
2023/05/29 06:57:05;;;;;;;9.52;3.40;;;;;;;;;;5113897;28;20030;-72
2023/05/29 06:59:30;;;;;;;13.53;3.23;;;;;;;;;;5114412;28;20110;-73
2023/05/29 07:01:55;;;;;;;6.17;3.10;;;;;;;;;;5120381;28;20479;-79
2023/05/29 07:04:21;;;;;;;12.80;3.38;;;;;;;;;;5126987;28;20322;-79
2023/05/29 07:06:46;;;;;;;9.40;3.77;;;;;;;;;;5126362;28;20023;-78
2023/05/29 07:09:11;;;;;;;10.32;2.97;;;;;;;;;;5126761;28;20082;-78
2023/05/29 07:11:37;;;;;;;15.40;4.40;;;;;;;;;;5120200;28;20028;-79
2023/05/29 07:14:03;;;;;;;12.20;3.10;;;;;;;;;;5115481;28;20019;-80
2023/05/29 07:16:28;;;;;;;6.37;2.77;;;;;;;;;;5130871;27;20015;-79
2023/05/29 07:18:53;;;;;;;8.40;2.83;;;;;;;;;;5116251;28;20059;-79
2023/05/29 07:21:20;;;;;;;5.83;2.37;;;;;;;;;;5115777;28;20020;-78
2023/05/29 07:23:45;;;;;;;10.43;3.15;;;;;;;;;;5117264;28;20031;-77
2023/05/29 07:26:10;;;;;;;6.47;2.03;;;;;;;;;;5121129;28;20011;-78
2023/05/29 07:28:36;;;;;;;6.40;2.03;;;;;;;;;;5127253;28;20019;-80
2023/05/29 07:31:01;;;;;;;8.95;2.20;;;;;;;;;;5125308;28;20034;-78
2023/05/29 07:33:26;;;;;;;3.63;1.93;;;;;;;;;;5125561;28;20023;-78
2023/05/29 07:35:52;;;;;;;5.93;2.27;;;;;;;;;;5126937;28;20422;-78
2023/05/29 07:38:17;;;;;;;11.05;2.33;;;;;;;;;;5125145;28;20027;-79
2023/05/29 07:40:42;;;;;;;6.57;2.23;;;;;;;;;;5094753;28;20472;-73
2023/05/29 07:43:07;;;;;;;3.97;2.37;;;;;;;;;;5089660;28;20050;-73
2023/05/29 07:45:33;;;;;;;7.07;1.90;;;;;;;;;;5112505;28;20059;-73
2023/05/29 07:47:58;;;;;;;5.53;1.70;;;;;;;;;;5113613;28;20295;-73
2023/05/29 07:50:23;;;;;;;4.37;1.77;;;;;;;;;;5095043;28;20089;-74
2023/05/29 07:52:48;;;;;;;5.80;1.60;;;;;;;;;;5113482;28;20064;-73
2023/05/29 07:55:14;;;;;;;10.77;2.30;;;;;;;;;;5113267;28;20095;-74
2023/05/29 07:57:39;;;;;;;12.95;2.38;;;;;;;;;;5113599;28;20291;-82
2023/05/29 08:00:05;;;;;;;4.22;1.60;;;;;;;;;;5113125;28;20434;-84
2023/05/29 08:02:31;;;;;;;4.15;1.50;;;;;;;;;;5113405;28;20543;-78
2023/05/29 08:04:56;;;;;;;3.43;1.50;;;;;;;;;;5113718;28;20015;-76
2023/05/29 08:07:21;;;;;;;5.03;1.60;;;;;;;;;;5095064;28;20461;-76
2023/05/29 08:09:47;;;;;;;3.25;1.67;;;;;;;;;;5113102;28;20661;-75
2023/05/29 08:12:13;;;;;;;4.95;1.65;;;;;;;;;;5113154;28;20016;-76
2023/05/29 08:14:38;;;;;;;7.30;1.90;;;;;;;;;;5113152;28;20452;-75
2023/05/29 08:17:03;;;;;;;3.73;3.20;;;;;;;;;;5113462;28;20019;-75
2023/05/29 08:19:29;;;;;;;5.63;2.50;;;;;;;;;;5113025;28;20027;-74
2023/05/29 08:21:54;;;;;;;5.28;1.50;;;;;;;;;;5112977;28;20452;-74
2023/05/29 08:24:20;;;;;;;13.07;1.83;;;;;;;;;;5114470;28;20477;-75
2023/05/29 08:26:45;;;;;;;5.18;2.08;;;;;;;;;;5117210;28;20142;-76
2023/05/29 08:29:10;;;;;;;3.40;1.73;;;;;;;;;;5116935;28;20019;-74
2023/05/29 08:31:36;;;;;;;3.83;1.63;;;;;;;;;;5116741;28;20063;-75
2023/05/29 08:34:01;;;;;;;4.70;2.10;;;;;;;;;;5116603;28;20118;-75
2023/05/29 08:36:27;;;;;;;4.43;1.75;;;;;;;;;;5116611;28;20085;-75
2023/05/29 08:38:52;;;;;;;4.03;1.67;;;;;;;;;;5116832;28;20011;-75
2023/05/29 08:41:20;;;;;;;4.00;1.77;;;;;;;;;;5098399;28;20410;-76
2023/05/29 08:43:47;;;;;;;5.47;1.88;;;;;;;;;;5116678;28;20206;-75
2023/05/29 08:46:13;;;;;;;8.52;1.83;;;;;;;;;;5098332;28;20027;-74
2023/05/29 08:48:40;;;;;;;5.15;2.00;;;;;;;;;;5116533;28;20024;-76
2023/05/29 08:51:07;;;;;;;3.30;1.35;;;;;;;;;;5116631;28;20483;-75
2023/05/29 08:53:32;;;;;;;3.83;1.40;;;;;;;;;;5116187;28;20023;-76
2023/05/29 08:55:58;;;;;;;10.80;2.33;;;;;;;;;;5116238;28;20422;-74
2023/05/29 08:58:24;;;;;;;3.95;1.33;;;;;;;;;;5116517;28;20790;-73
2023/05/29 09:00:50;;;;;;;6.30;1.45;;;;;;;;;;5116331;28;20052;-75
2023/05/29 09:03:16;;;;;;;5.47;1.40;;;;;;;;;;5116289;28;20031;-75
2023/05/29 09:05:41;;;;;;;2.47;1.33;;;;;;;;;;5116806;28;20023;-73
2023/05/29 09:08:08;;;;;;;3.53;1.50;;;;;;;;;;5115843;28;20706;-73
2023/05/29 09:10:34;;;;;;;6.22;1.80;;;;;;;;;;5116348;28;20050;-73
2023/05/29 09:12:59;;;;;;;4.57;1.70;;;;;;;;;;5116212;28;20049;-74
2023/05/29 09:15:24;;;;;;;3.38;1.58;;;;;;;;;;5115926;28;20742;-75
2023/05/29 09:17:53;;;;;;;4.90;1.53;;;;;;;;;;5116018;28;20028;-75
2023/05/29 09:20:22;;;;;;;8.50;1.25;;;;;;;;;;5116159;28;20265;-74
2023/05/29 09:23:01;;;;;;;1.45;1.30;;;;;;;;;;5115720;28;20374;-73
2023/05/29 09:25:27;;;;;;;5.35;1.60;;;;;;;;;;5116201;28;20035;-75
2023/05/29 09:28:03;;;;;;;6.43;1.38;;;;;;;;;;5115963;28;20024;-74
2023/05/29 09:30:39;;;;;;;5.22;1.38;;;;;;;;;;5116174;28;20051;-76
2023/05/29 09:33:06;;;;;;;6.18;1.77;;;;;;;;;;5115370;28;20027;-74
2023/05/29 09:35:32;;;;;;;3.85;1.42;;;;;;;;;;5114707;28;20057;-74
2023/05/29 09:37:57;;;;;;;6.43;1.60;;;;;;;;;;5115512;28;20019;-74
2023/05/29 09:40:23;;;;;;;2.63;1.33;;;;;;;;;;5115781;28;20027;-73
2023/05/29 09:42:48;;;;;;;3.15;1.75;;;;;;;;;;5115982;28;20050;-73
2023/05/29 09:45:16;;;;;;;2.70;1.80;;;;;;;;;;5115345;28;20024;-74
2023/05/29 09:47:41;;;;;;;5.22;1.75;;;;;;;;;;5115147;28;20027;-76
2023/05/29 09:50:17;;;;;;;4.33;1.73;;;;;;;;;;5115176;28;20076;-75
2023/05/29 09:52:43;;;;;;;2.95;1.80;;;;;;;;;;5115370;28;20068;-75
2023/05/29 09:55:09;;;;;;;2.85;1.95;;;;;;;;;;5115638;28;20119;-75
2023/05/29 09:57:35;;;;;;;3.22;2.13;;;;;;;;;;5115270;28;20044;-76
2023/05/29 10:00:01;;;;;;;7.35;1.92;;;;;;;;;;5114853;28;20039;-75
2023/05/29 10:02:26;;;;;;;2.20;1.85;;;;;;;;;;5096692;28;20456;-75
2023/05/29 10:04:51;;;;;;;5.40;1.88;;;;;;;;;;5115022;28;20020;-74
2023/05/29 10:07:32;;;;;;;3.50;1.70;;;;;;;;;;5114609;28;20023;-74
2023/05/29 10:10:01;;;;;;;4.90;1.80;;;;;;;;;;5115145;28;20026;-76
2023/05/29 10:12:27;;;;;;;3.95;2.00;;;;;;;;;;5114763;28;20447;-75
2023/05/29 10:14:54;;;;;;;4.07;1.90;;;;;;;;;;5096290;28;20099;-75
2023/05/29 10:17:23;;;;;;;4.22;1.80;;;;;;;;;;5114848;28;20051;-75
2023/05/29 10:19:49;;;;;;;7.20;2.42;;;;;;;;;;5114970;28;20012;-74
2023/05/29 10:22:15;;;;;;;6.70;2.35;;;;;;;;;;5114589;28;20026;-75
2023/05/29 10:24:40;;;;;;;3.30;1.98;;;;;;;;;;5114935;28;20023;-74
2023/05/29 10:27:06;;;;;;;5.35;2.33;;;;;;;;;;5114589;28;20023;-73
2023/05/29 10:29:35;;;;;;;5.88;2.88;;;;;;;;;;5114749;28;20110;-74
2023/05/29 10:32:01;;;;;;;5.32;2.30;;;;;;;;;;5114371;28;20106;-73
2023/05/29 10:34:33;;;;;;;8.82;2.85;;;;;;;;;;5114635;28;20157;-75
2023/05/29 10:37:20;;;;;;;8.18;2.65;;;;;;;;;;5114335;28;20094;-74
2023/05/29 10:39:45;;;;;;;3.60;2.42;;;;;;;;;;5095910;28;20019;-73
2023/05/29 10:42:29;;;;;;;8.93;2.70;;;;;;;;;;5079212;28;20016;-74
2023/05/29 10:44:55;;;;;;;4.50;2.38;;;;;;;;;;5114625;28;20027;-75
2023/05/29 10:47:23;;;;;;;9.30;2.43;;;;;;;;;;5114120;28;20348;-75
2023/05/29 10:49:49;;;;;;;4.22;2.08;;;;;;;;;;5114317;28;20265;-74
2023/05/29 10:52:18;;;;;;;3.78;2.30;;;;;;;;;;5113928;28;20514;-74
2023/05/29 10:54:50;;;;;;;4.15;2.28;;;;;;;;;;5114243;28;20031;-74
2023/05/29 10:57:16;;;;;;;6.28;2.40;;;;;;;;;;5114102;28;20027;-75
2023/05/29 10:59:41;;;;;;;4.30;2.20;;;;;;;;;;5113786;28;20031;-73
2023/05/29 11:02:06;;;;;;;9.70;2.10;;;;;;;;;;5113538;28;20059;-74
2023/05/29 11:04:32;;;;;;;3.00;2.10;;;;;;;;;;5114049;28;20388;-74
2023/05/29 11:06:58;;;;;;;5.72;1.80;;;;;;;;;;5113714;28;20265;-73
2023/05/29 11:09:30;;;;;;;6.40;2.22;;;;;;;;;;5113969;28;20019;-74
2023/05/29 11:12:10;;;;;;;3.28;2.08;;;;;;;;;;5113540;28;20046;-75
2023/05/29 11:14:47;;;;;;;4.03;2.17;;;;;;;;;;5113948;28;20114;-72
2023/05/29 11:17:31;;;;;;;7.60;2.78;;;;;;;;;;5113477;28;20402;-70
2023/05/29 11:19:56;;;;;;;2.47;1.90;;;;;;;;;;5113869;28;20051;-72
2023/05/29 11:22:26;;;;;;;3.75;1.95;;;;;;;;;;5113895;28;20100;-72
2023/05/29 11:24:52;;;;;;;5.72;2.10;;;;;;;;;;5113544;28;20027;-73
2023/05/29 11:27:18;;;;;;;2.25;1.60;;;;;;;;;;5113653;28;20092;-72
2023/05/29 11:29:45;;;;;;;4.82;2.33;;;;;;;;;;5113521;28;20374;-75
2023/05/29 11:32:12;;;;;;;4.60;2.28;;;;;;;;;;5113646;28;20472;-75
2023/05/29 11:34:39;;;;;;;10.15;2.50;;;;;;;;;;5113769;28;20036;-74
2023/05/29 11:37:04;;;;;;;10.43;2.30;;;;;;;;;;5113900;28;20077;-73
2023/05/29 11:39:30;;;;;;;9.03;2.83;;;;;;;;;;5113711;28;20024;-75
2023/05/29 11:41:56;;;;;;;5.95;1.83;;;;;;;;;;5113500;28;20281;-74
2023/05/29 11:44:23;;;;;;;3.90;1.85;;;;;;;;;;5113249;28;20148;-75
2023/05/29 11:46:59;;;;;;;5.20;2.38;;;;;;;;;;5113453;28;20024;-74
2023/05/29 11:49:27;;;;;;;7.93;2.47;;;;;;;;;;5113392;28;20016;-74
2023/05/29 11:51:53;;;;;;;4.88;2.63;;;;;;;;;;5113488;28;20026;-74
2023/05/29 11:54:19;;;;;;;7.20;2.30;;;;;;;;;;5113513;28;20020;-74
2023/05/29 11:56:47;;;;;;;6.82;2.22;;;;;;;;;;5113858;28;20342;-74
2023/05/29 11:59:12;;;;;;;7.30;2.25;;;;;;;;;;5115402;28;20046;-75
2023/05/29 12:01:37;;;;;;;7.15;2.20;;;;;;;;;;5117573;28;20016;-74
2023/05/29 12:04:13;;;;;;;6.47;2.40;;;;;;;;;;5117668;28;20023;-75
2023/05/29 12:06:39;;;;;;;6.75;2.63;;;;;;;;;;5118080;28;20050;-74
2023/05/29 12:09:05;;;;;;;8.50;2.70;;;;;;;;;;5117731;28;20452;-75
2023/05/29 12:11:30;;;;;;;4.82;2.50;;;;;;;;;;5117542;28;20309;-74
2023/05/29 12:14:01;;;;;;;6.93;2.20;;;;;;;;;;5117591;28;20062;-73
2023/05/29 12:16:28;;;;;;;8.85;2.30;;;;;;;;;;5117588;28;20478;-73
2023/05/29 12:18:53;;;;;;;7.78;2.28;;;;;;;;;;5117889;28;20016;-73
2023/05/29 12:21:20;;;;;;;3.95;2.10;;;;;;;;;;5117383;28;20463;-74
2023/05/29 12:23:45;;;;;;;2.95;2.28;;;;;;;;;;5117441;28;20031;-73
2023/05/29 12:26:10;;;;;;;8.50;2.60;;;;;;;;;;5117292;28;20031;-73
2023/05/29 12:28:41;;;;;;;4.20;2.40;;;;;;;;;;5117593;28;20080;-75
2023/05/29 12:31:07;;;;;;;5.25;2.33;;;;;;;;;;5117481;28;20269;-73
2023/05/29 12:33:33;;;;;;;6.57;2.35;;;;;;;;;;5117135;28;20027;-73
2023/05/29 12:36:06;;;;;;;6.55;2.30;;;;;;;;;;5117031;28;20019;-73
2023/05/29 12:38:31;;;;;;;7.90;2.25;;;;;;;;;;5116959;28;20030;-74
2023/05/29 12:40:57;;;;;;;6.13;2.30;;;;;;;;;;5117377;28;20087;-73
2023/05/29 12:43:22;;;;;;;3.50;2.20;;;;;;;;;;5117235;28;20478;-72
2023/05/29 12:45:53;;;;;;;7.45;3.03;;;;;;;;;;5117208;28;20077;-72
2023/05/29 12:48:21;;;;;;;8.15;2.10;;;;;;;;;;5116573;28;20418;-71
2023/05/29 12:50:48;;;;;;;11.45;2.35;;;;;;;;;;5116172;28;20439;-71
2023/05/29 12:53:15;;;;;;;12.27;2.78;;;;;;;;;;5114625;28;20687;-73
2023/05/29 12:55:41;;;;;;;8.27;2.45;;;;;;;;;;5114789;28;20016;-71
2023/05/29 12:58:07;;;;;;;11.10;2.53;;;;;;;;;;5114924;28;20031;-74
2023/05/29 13:00:36;;;;;;;6.57;2.92;;;;;;;;;;5114517;28;20059;-72
2023/05/29 13:03:01;;;;;;;4.00;2.20;;;;;;;;;;5114488;28;20081;-73
2023/05/29 13:05:27;;;;;;;6.65;2.10;;;;;;;;;;5114615;28;20031;-73
2023/05/29 13:07:52;;;;;;;8.23;2.30;;;;;;;;;;5114494;28;20402;-71
2023/05/29 13:10:18;;;;;;;7.32;2.25;;;;;;;;;;5114597;28;20027;-72
2023/05/29 13:12:44;;;;;;;7.10;2.53;;;;;;;;;;5114258;28;20161;-73
2023/05/29 13:15:11;;;;;;;8.50;2.20;;;;;;;;;;5114290;28;20016;-73
2023/05/29 13:17:36;;;;;;;7.40;2.35;;;;;;;;;;5114371;28;20020;-73
2023/05/29 13:20:02;;;;;;;4.90;2.15;;;;;;;;;;5115087;28;20478;-72
2023/05/29 13:22:31;;;;;;;7.47;2.25;;;;;;;;;;5116432;28;20783;-72
2023/05/29 13:24:59;;;;;;;9.73;2.75;;;;;;;;;;5116693;28;20146;-73
2023/05/29 13:27:24;;;;;;;6.63;1.85;;;;;;;;;;5116219;28;20047;-72
2023/05/29 13:29:50;;;;;;;4.18;2.05;;;;;;;;;;5116442;28;20101;-73
2023/05/29 13:32:15;;;;;;;6.07;2.55;;;;;;;;;;5116221;28;20027;-72
2023/05/29 13:34:41;;;;;;;8.33;2.10;;;;;;;;;;5115895;28;20030;-72
2023/05/29 13:37:06;;;;;;;5.40;1.95;;;;;;;;;;5116095;28;20028;-73
2023/05/29 13:39:32;;;;;;;5.17;2.00;;;;;;;;;;5116195;28;20019;-74
2023/05/29 13:41:57;;;;;;;6.35;2.25;;;;;;;;;;5115666;28;20026;-73
2023/05/29 13:44:22;;;;;;;7.20;2.23;;;;;;;;;;5116086;28;20027;-72
2023/05/29 13:46:47;;;;;;;7.27;2.07;;;;;;;;;;5115917;28;20333;-73
2023/05/29 13:49:13;;;;;;;5.80;2.10;;;;;;;;;;5115674;28;20073;-72
2023/05/29 13:51:38;;;;;;;6.23;2.37;;;;;;;;;;5115676;28;20035;-72
2023/05/29 13:54:04;;;;;;;3.53;1.97;;;;;;;;;;5115597;28;20056;-73
2023/05/29 13:56:30;;;;;;;4.53;2.20;;;;;;;;;;5096953;28;20019;-72
2023/05/29 13:58:55;;;;;;;4.88;2.40;;;;;;;;;;5115288;28;20475;-73
2023/05/29 14:01:20;;;;;;;4.93;2.17;;;;;;;;;;5115665;28;20008;-73
2023/05/29 14:03:46;;;;;;;7.32;2.13;;;;;;;;;;5097379;28;20665;-73
2023/05/29 14:06:11;;;;;;;6.80;2.05;;;;;;;;;;5115248;28;20023;-74
2023/05/29 14:08:37;;;;;;;6.53;2.35;;;;;;;;;;5115058;28;20016;-73
2023/05/29 14:11:02;;;;;;;3.72;2.20;;;;;;;;;;5115426;28;20114;-71
2023/05/29 14:13:28;;;;;;;6.40;2.53;;;;;;;;;;5115011;28;20024;-73
2023/05/29 14:15:55;;;;;;;10.10;2.75;;;;;;;;;;5115047;28;20273;-72
2023/05/29 14:18:21;;;;;;;11.65;3.15;;;;;;;;;;5114779;28;20412;-72
2023/05/29 14:20:48;;;;;;;4.67;2.03;;;;;;;;;;5115199;28;20081;-74
2023/05/29 14:23:15;;;;;;;4.28;2.20;;;;;;;;;;5096061;28;20273;-73
2023/05/29 14:25:41;;;;;;;3.55;2.10;;;;;;;;;;5115075;28;20115;-73
2023/05/29 14:28:06;;;;;;;5.28;2.50;;;;;;;;;;5114860;28;20448;-72
2023/05/29 14:30:31;;;;;;;6.45;2.08;;;;;;;;;;5114606;28;20026;-71
2023/05/29 14:32:57;;;;;;;4.27;2.30;;;;;;;;;;5114634;28;20020;-72